createdAt,value
2022-08-16T00:00:56.658Z,31.80
2022-08-16T00:03:23.279Z,31.71
2022-08-16T00:05:57.559Z,31.68
2022-08-16T00:08:35.929Z,31.81
2022-08-16T00:11:03.800Z,31.80
2022-08-16T00:13:30.290Z,31.81
2022-08-16T00:15:56.919Z,31.81
2022-08-16T00:18:29.541Z,31.79
2022-08-16T00:20:57.289Z,31.82
2022-08-16T00:23:24.522Z,31.82
2022-08-16T00:26:33.830Z,31.80
2022-08-16T00:28:54.869Z,31.80
2022-08-16T00:31:24.256Z,31.80
2022-08-16T00:33:51.111Z,31.82
2022-08-16T00:36:17.854Z,31.83
2022-08-16T00:38:44.359Z,31.83
2022-08-16T00:41:11.319Z,31.83
2022-08-16T00:43:42.833Z,31.83
2022-08-16T00:46:33.897Z,31.83
2022-08-16T00:49:07.150Z,31.83
2022-08-16T00:51:44.750Z,31.83
2022-08-16T00:54:12.189Z,31.84
2022-08-16T00:56:58.098Z,31.70
2022-08-16T00:59:28.955Z,31.85
2022-08-16T01:01:56.279Z,31.84
2022-08-16T01:04:29.845Z,31.84
2022-08-16T01:07:01.729Z,31.85
2022-08-16T01:09:33.442Z,31.85
2022-08-16T01:12:01.332Z,31.85
2022-08-16T01:14:36.364Z,31.84
2022-08-16T01:17:04.359Z,31.85
2022-08-16T01:19:40.867Z,31.85
2022-08-16T01:22:47.892Z,31.85
2022-08-16T01:25:13.779Z,31.85
2022-08-16T01:27:45.692Z,31.84
2022-08-16T01:30:21.784Z,31.78
2022-08-16T01:33:01.862Z,31.85
2022-08-16T01:35:57.642Z,31.83
2022-08-16T01:38:35.438Z,31.83
2022-08-16T01:41:12.519Z,31.82
2022-08-16T01:43:54.224Z,31.83
2022-08-16T01:46:40.277Z,31.75
2022-08-16T01:49:18.620Z,31.80
2022-08-16T01:51:48.278Z,31.82
2022-08-16T01:54:16.098Z,31.74
2022-08-16T01:56:42.932Z,31.82
2022-08-16T01:59:15.898Z,31.83
2022-08-16T02:01:49.487Z,31.85
2022-08-16T02:04:40.107Z,31.83
2022-08-16T02:07:11.380Z,31.83
2022-08-16T02:09:39.050Z,31.83
2022-08-16T02:12:50.529Z,31.85
2022-08-16T02:14:55.418Z,31.85
2022-08-16T02:17:22.319Z,31.84
2022-08-16T02:19:59.165Z,31.85
2022-08-16T02:22:34.268Z,31.80
2022-08-16T02:25:04.282Z,31.84
2022-08-16T02:27:31.008Z,31.83
2022-08-16T02:30:05.436Z,31.85
2022-08-16T02:32:51.028Z,31.85
2022-08-16T02:35:23.199Z,31.85
2022-08-16T02:37:52.964Z,31.85
2022-08-16T02:40:21.992Z,31.85
2022-08-16T02:42:50.812Z,31.24
2022-08-16T02:45:20.360Z,31.86
2022-08-16T02:48:00.536Z,31.86
2022-08-16T02:50:55.374Z,31.86
2022-08-16T02:53:24.703Z,31.86
2022-08-16T02:55:53.782Z,31.85
2022-08-16T02:58:24.810Z,31.86
2022-08-16T03:00:52.501Z,31.86
2022-08-16T03:03:19.136Z,31.80
2022-08-16T03:05:52.230Z,31.86
2022-08-16T03:08:50.988Z,31.87
2022-08-16T03:11:16.638Z,31.86
2022-08-16T03:13:51.423Z,31.86
2022-08-16T03:16:36.514Z,31.86
2022-08-16T03:19:06.393Z,31.80
2022-08-16T03:21:38.224Z,31.86
2022-08-16T03:24:27.604Z,31.86
2022-08-16T03:26:58.757Z,31.86
2022-08-16T03:29:32.022Z,31.85
2022-08-16T03:32:01.218Z,31.86
2022-08-16T03:34:29.422Z,31.85
2022-08-16T03:36:56.297Z,31.87
2022-08-16T03:39:23.182Z,31.85
2022-08-16T03:41:59.885Z,31.77
2022-08-16T03:44:44.708Z,31.80
2022-08-16T03:47:18.616Z,31.86
2022-08-16T03:49:51.191Z,31.86
2022-08-16T03:52:20.314Z,31.86
2022-08-16T03:54:57.734Z,31.86
2022-08-16T03:57:32.192Z,31.86
2022-08-16T04:00:35.776Z,31.80
2022-08-16T04:03:07.090Z,31.82
2022-08-16T04:05:36.843Z,31.56
2022-08-16T04:08:22.377Z,31.86
2022-08-16T04:10:52.331Z,31.86
2022-08-16T04:13:20.778Z,31.86
2022-08-16T04:16:06.601Z,31.86
2022-08-16T04:18:33.247Z,31.82
2022-08-16T04:21:01.003Z,31.86
2022-08-16T04:23:27.448Z,31.86
2022-08-16T04:25:53.955Z,31.84
2022-08-16T04:28:52.230Z,31.86
2022-08-16T04:31:07.356Z,31.85
2022-08-16T04:33:37.124Z,31.86
2022-08-16T04:36:04.665Z,31.85
2022-08-16T04:38:31.289Z,31.86
2022-08-16T04:41:00.164Z,31.87
2022-08-16T04:43:26.964Z,31.87
2022-08-16T04:45:59.971Z,31.87
2022-08-16T04:48:32.613Z,31.86
2022-08-16T04:51:01.383Z,31.88
2022-08-16T04:53:34.663Z,31.87
2022-08-16T04:56:01.117Z,31.86
2022-08-16T04:58:44.058Z,31.76
2022-08-16T05:01:12.876Z,31.86
2022-08-16T05:04:00.468Z,31.87
2022-08-16T05:06:45.520Z,31.79
2022-08-16T05:09:12.658Z,31.87
2022-08-16T05:11:39.321Z,31.87
2022-08-16T05:14:07.237Z,31.88
2022-08-16T05:16:33.962Z,31.82
2022-08-16T05:19:02.215Z,31.88
2022-08-16T05:21:35.920Z,31.88
2022-08-16T05:24:07.645Z,31.89
2022-08-16T05:26:40.813Z,31.90
2022-08-16T05:29:11.021Z,31.89
2022-08-16T05:31:48.130Z,31.85
2022-08-16T05:34:19.407Z,31.91
2022-08-16T05:36:49.242Z,31.92
2022-08-16T05:39:18.112Z,31.91
2022-08-16T05:41:47.218Z,31.89
2022-08-16T05:44:22.473Z,31.88
2022-08-16T05:46:56.246Z,31.87
2022-08-16T05:49:23.440Z,31.86
2022-08-16T05:51:50.816Z,31.70
2022-08-16T05:54:24.794Z,31.77
2022-08-16T05:56:52.983Z,31.80
2022-08-16T05:59:22.153Z,31.87
2022-08-16T06:01:52.207Z,31.87
2022-08-16T06:04:35.551Z,31.87
2022-08-16T06:07:07.286Z,31.88
2022-08-16T06:09:43.707Z,31.89
2022-08-16T06:12:26.930Z,31.89
2022-08-16T06:15:10.115Z,31.90
2022-08-16T06:17:42.486Z,31.76
2022-08-16T06:20:23.147Z,31.90
2022-08-16T06:22:58.608Z,31.92
2022-08-16T06:25:35.920Z,31.88
2022-08-16T06:28:08.554Z,31.91
2022-08-16T06:30:35.628Z,31.90
2022-08-16T06:33:12.310Z,31.90
2022-08-16T06:35:41.544Z,31.90
2022-08-16T06:38:33.649Z,31.89
2022-08-16T06:40:55.464Z,31.86
2022-08-16T06:43:21.965Z,31.88
2022-08-16T06:45:54.324Z,31.68
2022-08-16T06:48:32.662Z,31.86
2022-08-16T06:51:01.363Z,31.85
2022-08-16T06:53:29.707Z,31.84
2022-08-16T06:55:58.685Z,31.83
2022-08-16T06:58:31.314Z,31.68
2022-08-16T07:00:59.956Z,31.81
2022-08-16T07:03:32.525Z,31.81
2022-08-16T07:05:59.614Z,31.81
2022-08-16T07:08:27.617Z,31.79
2022-08-16T07:10:55.223Z,31.80
2022-08-16T07:13:57.697Z,31.79
2022-08-16T07:16:15.470Z,31.79
2022-08-16T07:18:58.887Z,31.78
2022-08-16T07:21:28.194Z,31.78
2022-08-16T07:24:26.838Z,31.78
2022-08-16T07:26:59.026Z,31.77
2022-08-16T07:29:28.195Z,31.77
2022-08-16T07:32:00.693Z,31.76
2022-08-16T07:34:35.409Z,31.77
2022-08-16T07:37:08.035Z,31.77
2022-08-16T07:39:43.081Z,31.77
2022-08-16T07:42:10.938Z,31.75
2022-08-16T07:44:52.754Z,31.77
2022-08-16T07:47:19.515Z,31.75
2022-08-16T07:49:57.716Z,31.76
2022-08-16T07:52:25.046Z,31.70
2022-08-16T07:54:57.050Z,31.77
2022-08-16T07:57:24.624Z,31.77
2022-08-16T07:59:51.872Z,31.76
2022-08-16T08:02:20.631Z,31.75
2022-08-16T08:04:48.046Z,31.66
2022-08-16T08:07:16.169Z,31.48
2022-08-16T08:09:43.922Z,31.78
2022-08-16T08:12:32.628Z,31.79
2022-08-16T08:14:58.253Z,31.79
2022-08-16T08:17:25.179Z,31.80
2022-08-16T08:20:26.096Z,31.80
2022-08-16T08:23:00.619Z,31.80
2022-08-16T08:25:52.006Z,31.81
2022-08-16T08:28:17.173Z,31.81
2022-08-16T08:30:51.848Z,31.80
2022-08-16T08:33:28.418Z,31.80
2022-08-16T08:35:57.772Z,31.68
2022-08-16T08:38:44.997Z,31.74
2022-08-16T08:41:15.302Z,31.80
2022-08-16T08:43:47.243Z,31.82
2022-08-16T08:46:18.329Z,31.68
2022-08-16T08:48:59.090Z,31.82
2022-08-16T08:51:27.610Z,31.83
2022-08-16T08:53:58.782Z,31.83
2022-08-16T08:56:25.850Z,31.86
2022-08-16T08:58:55.003Z,31.86
2022-08-16T09:01:31.490Z,31.87
2022-08-16T09:04:04.461Z,31.87
2022-08-16T09:06:32.516Z,31.85
2022-08-16T09:09:00.467Z,31.86
2022-08-16T09:11:38.839Z,31.88
2022-08-16T09:14:08.238Z,31.89
2022-08-16T09:17:01.694Z,31.90
2022-08-16T09:19:34.036Z,31.91
2022-08-16T09:22:01.072Z,31.96
2022-08-16T09:24:51.400Z,31.96
2022-08-16T09:27:14.636Z,31.91
2022-08-16T09:29:45.758Z,31.83
2022-08-16T09:32:28.691Z,31.70
2022-08-16T09:34:58.726Z,31.68
2022-08-16T09:37:29.198Z,31.59
2022-08-16T09:39:59.476Z,31.55
2022-08-16T09:42:28.001Z,31.52
2022-08-16T09:45:12.315Z,31.49
2022-08-16T09:47:56.766Z,31.36
2022-08-16T09:50:36.914Z,31.35
2022-08-16T09:53:14.792Z,31.30
2022-08-16T09:55:45.894Z,31.26
2022-08-16T09:58:41.835Z,31.25
2022-08-16T10:01:03.231Z,31.16
2022-08-16T10:03:30.565Z,31.19
2022-08-16T10:05:57.522Z,31.03
2022-08-16T10:08:26.919Z,31.06
2022-08-16T10:11:12.705Z,31.05
2022-08-16T10:13:41.458Z,31.15
2022-08-16T10:19:00.611Z,31.06
2022-08-16T10:21:23.569Z,31.08
2022-08-16T10:23:53.574Z,31.11
2022-08-16T10:27:16.669Z,31.12
2022-08-16T10:29:10.666Z,31.13
2022-08-16T10:31:45.688Z,31.18
2022-08-16T10:34:30.846Z,31.20
2022-08-16T10:36:58.798Z,31.21
2022-08-16T10:39:25.433Z,31.21
2022-08-16T10:41:51.973Z,31.20
2022-08-16T10:44:18.439Z,31.18
2022-08-16T10:46:45.102Z,31.02
2022-08-16T10:49:12.654Z,31.15
2022-08-16T10:52:00.873Z,31.14
2022-08-16T10:54:31.017Z,31.12
2022-08-16T10:56:59.646Z,31.11
2022-08-16T10:59:38.427Z,31.10
2022-08-16T11:02:59.225Z,31.08
2022-08-16T11:05:09.409Z,31.07
2022-08-16T11:07:51.397Z,31.03
2022-08-16T11:16:26.910Z,30.99
2022-08-16T11:19:05.611Z,31.04
2022-08-16T11:21:36.580Z,31.06
2022-08-16T11:24:04.859Z,31.08
2022-08-16T11:29:39.253Z,31.11
2022-08-16T11:32:07.630Z,31.10
2022-08-16T11:35:03.982Z,31.04
2022-08-16T11:37:27.564Z,30.97
2022-08-16T11:40:01.686Z,30.89
2022-08-16T11:42:32.180Z,31.01
2022-08-16T11:45:00.986Z,31.04
2022-08-16T11:47:28.664Z,31.06
2022-08-16T11:49:55.192Z,31.12
2022-08-16T11:52:23.779Z,31.16
2022-08-16T11:54:57.076Z,31.20
2022-08-16T11:57:26.801Z,31.25
2022-08-16T11:59:54.899Z,31.28
2022-08-16T12:02:32.054Z,31.30
2022-08-16T12:04:59.529Z,31.36
2022-08-16T12:07:27.851Z,31.39
2022-08-16T12:09:55.141Z,31.44
2022-08-16T12:12:23.613Z,31.48
2022-08-16T12:14:54.629Z,31.49
2022-08-16T12:17:27.943Z,31.50
2022-08-16T12:19:58.531Z,31.24
2022-08-16T12:22:25.643Z,31.54
2022-08-16T12:24:52.777Z,31.53
2022-08-16T12:27:23.307Z,31.58
2022-08-16T12:29:51.435Z,31.60
2022-08-16T12:32:38.257Z,31.61
2022-08-16T12:35:07.529Z,31.64
2022-08-16T12:37:34.932Z,31.65
2022-08-16T12:40:01.739Z,31.66
2022-08-16T12:42:35.267Z,31.67
2022-08-16T12:45:08.851Z,31.29
2022-08-16T12:48:09.960Z,31.69
2022-08-16T12:50:40.885Z,31.71
2022-08-16T12:53:07.838Z,31.71
2022-08-16T12:55:41.932Z,31.56
2022-08-16T12:58:14.012Z,31.72
2022-08-16T13:00:58.402Z,31.73
2022-08-16T13:03:25.777Z,31.69
2022-08-16T13:05:55.820Z,31.74
2022-08-16T13:08:23.292Z,31.74
2022-08-16T13:10:58.083Z,31.77
2022-08-16T13:13:25.838Z,31.77
2022-08-16T13:15:59.600Z,31.75
2022-08-16T13:18:33.522Z,31.77
2022-08-16T13:21:03.828Z,31.75
2022-08-16T13:23:30.614Z,31.79
2022-08-16T13:25:58.748Z,31.79
2022-08-16T13:28:26.809Z,31.80
2022-08-16T13:30:56.695Z,31.80
2022-08-16T13:33:30.463Z,31.82
2022-08-16T13:35:59.488Z,31.84
2022-08-16T13:38:32.684Z,31.86
2022-08-16T13:41:09.751Z,31.88
2022-08-16T13:43:38.288Z,31.89
2022-08-16T13:46:06.578Z,31.91
2022-08-16T13:48:37.159Z,31.94
2022-08-16T13:51:16.881Z,31.96
2022-08-16T13:53:54.686Z,31.98
2022-08-16T13:56:34.205Z,31.98
2022-08-16T13:59:19.495Z,32.02
2022-08-16T14:01:56.003Z,32.04
2022-08-16T14:04:26.604Z,31.99
2022-08-16T14:06:53.914Z,32.07
2022-08-16T14:09:21.348Z,32.05
2022-08-16T14:11:47.879Z,32.09
2022-08-16T14:14:19.792Z,32.10
2022-08-16T14:16:54.738Z,31.94
2022-08-16T14:19:22.427Z,32.13
2022-08-16T14:22:02.283Z,32.16
2022-08-16T14:24:36.690Z,32.04
2022-08-16T14:27:04.766Z,32.08
2022-08-16T14:29:32.234Z,32.18
2022-08-16T14:32:05.091Z,32.17
2022-08-16T14:34:31.538Z,32.17
2022-08-16T14:36:58.249Z,32.18
2022-08-16T14:39:26.604Z,32.20
2022-08-16T14:41:53.414Z,32.13
2022-08-16T14:44:23.046Z,32.24
2022-08-16T14:46:49.483Z,32.12
2022-08-16T14:49:15.931Z,32.29
2022-08-16T14:51:46.157Z,32.19
2022-08-16T14:54:13.027Z,32.28
2022-08-16T14:56:43.289Z,32.14
2022-08-16T14:59:22.351Z,32.17
2022-08-16T15:01:58.841Z,32.20
2022-08-16T15:04:32.287Z,32.17
2022-08-16T15:07:06.484Z,32.15
2022-08-16T15:09:44.608Z,32.19
2022-08-16T15:12:31.231Z,32.19
2022-08-16T15:15:04.162Z,32.15
2022-08-16T15:17:33.807Z,32.14
2022-08-16T15:20:08.587Z,31.97
2022-08-16T15:22:40.464Z,32.05
2022-08-16T15:25:31.745Z,32.04
2022-08-16T15:28:02.382Z,32.01
2022-08-16T15:30:48.250Z,31.98
2022-08-16T15:33:21.130Z,31.96
2022-08-16T15:35:50.669Z,31.93
2022-08-16T15:38:58.099Z,31.81
2022-08-16T15:41:04.784Z,31.87
2022-08-16T15:43:39.522Z,31.86
2022-08-16T15:46:35.613Z,31.85
2022-08-16T15:49:09.552Z,31.82
2022-08-16T15:51:36.905Z,31.82
2022-08-16T15:54:21.229Z,31.82
2022-08-16T15:56:54.982Z,31.23
2022-08-16T15:59:23.875Z,31.81
2022-08-16T16:01:55.775Z,31.65
2022-08-16T16:04:23.438Z,31.78
2022-08-16T16:06:55.149Z,31.76
2022-08-16T16:09:34.772Z,31.73
2022-08-16T16:12:16.282Z,31.72
2022-08-16T16:14:51.635Z,31.73
2022-08-16T16:17:18.086Z,31.72
2022-08-16T16:19:44.522Z,31.71
2022-08-16T16:22:16.274Z,31.73
2022-08-16T16:24:47.034Z,31.76
2022-08-16T16:27:14.229Z,31.76
2022-08-16T16:29:42.665Z,31.77
2022-08-16T16:32:13.399Z,31.76
2022-08-16T16:34:43.079Z,31.71
2022-08-16T16:37:10.381Z,31.67
2022-08-16T16:39:37.703Z,31.67
2022-08-16T16:42:05.318Z,31.66
2022-08-16T16:44:33.896Z,31.58
2022-08-16T16:47:03.856Z,31.67
2022-08-16T16:49:32.875Z,31.68
2022-08-16T16:52:07.150Z,31.57
2022-08-16T16:54:35.518Z,31.65
2022-08-16T16:57:02.267Z,31.68
2022-08-16T16:59:29.141Z,31.63
2022-08-16T17:02:39.392Z,31.67
2022-08-16T17:04:45.864Z,31.66
2022-08-16T17:07:13.811Z,31.67
2022-08-16T17:09:41.383Z,31.69
2022-08-16T17:12:10.245Z,31.73
2022-08-16T17:14:50.240Z,31.70
2022-08-16T17:17:16.739Z,31.80
2022-08-16T17:19:43.276Z,31.83
2022-08-16T17:22:19.841Z,31.83
2022-08-16T17:24:50.859Z,31.79
2022-08-16T17:27:33.668Z,31.78
2022-08-16T17:30:15.054Z,31.95
2022-08-16T17:32:50.404Z,31.98
2022-08-16T17:35:34.139Z,31.99
2022-08-16T17:38:04.865Z,32.01
2022-08-16T17:40:46.997Z,32.03
2022-08-16T17:43:20.054Z,32.01
2022-08-16T17:45:47.257Z,32.06
2022-08-16T17:48:13.819Z,32.09
2022-08-16T17:50:41.687Z,32.10
2022-08-16T17:53:11.030Z,31.92
2022-08-16T17:55:41.029Z,32.10
2022-08-16T17:58:20.979Z,32.11
2022-08-16T18:00:52.242Z,31.95
2022-08-16T18:04:02.463Z,32.13
2022-08-16T18:06:12.722Z,32.15
2022-08-16T18:08:41.413Z,32.14
2022-08-16T18:11:10.037Z,32.15
2022-08-16T18:13:42.805Z,32.16
2022-08-16T18:16:09.658Z,32.17
2022-08-16T18:18:36.114Z,32.17
2022-08-16T18:21:21.021Z,32.17
2022-08-16T18:23:47.488Z,32.20
2022-08-16T18:26:13.939Z,32.20
2022-08-16T18:28:41.196Z,32.14
2022-08-16T18:31:08.095Z,32.21
2022-08-16T18:33:43.231Z,32.22
2022-08-16T18:36:20.535Z,31.93
2022-08-16T18:38:49.596Z,32.23
2022-08-16T18:41:16.409Z,32.22
2022-08-16T18:44:23.058Z,32.22
2022-08-16T18:46:29.376Z,32.19
2022-08-16T18:48:55.816Z,32.21
2022-08-16T18:51:25.174Z,32.20
2022-08-16T18:53:52.270Z,32.20
2022-08-16T18:56:21.676Z,32.19
2022-08-16T18:58:48.254Z,32.02
2022-08-16T19:01:14.838Z,32.15
2022-08-16T19:03:41.433Z,32.12
2022-08-16T19:06:13.604Z,32.12
2022-08-16T19:08:42.199Z,32.11
2022-08-16T19:11:13.886Z,32.10
2022-08-16T19:13:44.051Z,32.08
2022-08-16T19:16:12.083Z,32.05
2022-08-16T19:18:38.648Z,31.98
2022-08-16T19:21:06.364Z,31.94
2022-08-16T19:23:35.831Z,32.01
2022-08-16T19:26:06.866Z,32.00
2022-08-16T19:28:58.450Z,31.98
2022-08-16T19:31:35.593Z,31.98
2022-08-16T19:34:04.142Z,31.38
2022-08-16T19:36:35.232Z,31.94
2022-08-16T19:39:06.103Z,31.95
2022-08-16T19:41:38.376Z,31.92
2022-08-16T19:44:06.416Z,31.92
2022-08-16T19:46:33.652Z,31.91
2022-08-16T19:49:00.364Z,31.90
2022-08-16T19:51:27.363Z,31.83
2022-08-16T19:53:53.828Z,31.88
2022-08-16T19:56:22.933Z,31.81
2022-08-16T19:59:16.294Z,31.87
2022-08-16T20:01:42.303Z,31.75
2022-08-16T20:04:12.074Z,31.81
2022-08-16T20:06:39.389Z,31.84
2022-08-16T20:09:06.500Z,31.85
2022-08-16T20:11:34.719Z,31.83
2022-08-16T20:14:01.937Z,31.84
2022-08-16T20:16:28.395Z,31.86
2022-08-16T20:18:54.841Z,31.85
2022-08-16T20:21:21.323Z,31.87
2022-08-16T20:23:47.741Z,31.86
2022-08-16T20:26:14.187Z,31.86
2022-08-16T20:28:53.126Z,31.86
2022-08-16T20:31:22.204Z,31.86
2022-08-16T20:33:48.919Z,31.86
2022-08-16T20:36:16.317Z,31.86
2022-08-16T20:38:45.890Z,31.87
2022-08-16T20:41:12.856Z,31.87
2022-08-16T20:43:39.379Z,31.86
2022-08-16T20:46:06.084Z,31.82
2022-08-16T20:48:32.595Z,31.86
2022-08-16T20:50:59.026Z,31.83
2022-08-16T20:53:25.532Z,31.86
2022-08-16T20:55:52.082Z,31.71
2022-08-16T20:58:18.629Z,31.86
2022-08-16T21:00:45.485Z,31.86
2022-08-16T21:03:13.025Z,31.86
2022-08-16T21:05:39.776Z,31.69
2022-08-16T21:08:50.202Z,31.84
2022-08-16T21:10:52.882Z,31.83
2022-08-16T21:13:20.702Z,31.83
2022-08-16T21:15:47.195Z,31.82
2022-08-16T21:18:13.627Z,31.82
2022-08-16T21:20:40.186Z,31.82
2022-08-16T21:23:08.923Z,31.82
2022-08-16T21:25:37.322Z,31.82
2022-08-16T21:28:39.995Z,31.82
2022-08-16T21:30:56.793Z,31.81
2022-08-16T21:33:23.619Z,31.66
2022-08-16T21:35:52.327Z,31.79
2022-08-16T21:38:28.612Z,31.71
2022-08-16T21:40:56.221Z,31.78
2022-08-16T21:43:27.572Z,31.70
2022-08-16T21:45:55.624Z,31.77
2022-08-16T21:48:34.165Z,31.77
2022-08-16T21:51:03.785Z,31.76
2022-08-16T21:53:30.386Z,31.76
2022-08-16T21:55:58.803Z,31.76
2022-08-16T21:58:25.835Z,31.75
2022-08-16T22:00:52.638Z,31.75
2022-08-16T22:03:19.198Z,31.74
2022-08-16T22:06:12.119Z,31.74
2022-08-16T22:08:34.252Z,31.74
2022-08-16T22:11:06.449Z,31.71
2022-08-16T22:13:35.367Z,31.73
2022-08-16T22:16:06.810Z,31.73
2022-08-16T22:18:33.271Z,31.71
2022-08-16T22:20:59.719Z,31.71
2022-08-16T22:23:26.536Z,31.63
2022-08-16T22:25:56.419Z,31.55
2022-08-16T22:28:23.988Z,31.70
2022-08-16T22:30:50.982Z,31.70
2022-08-16T22:33:21.160Z,31.70
2022-08-16T22:35:50.645Z,31.69
2022-08-16T22:38:53.470Z,31.67
2022-08-16T22:41:05.387Z,31.68
2022-08-16T22:43:32.673Z,31.67
2022-08-16T22:45:59.256Z,31.55
2022-08-16T22:48:25.720Z,31.67
2022-08-16T22:50:52.899Z,31.67
2022-08-16T22:53:20.026Z,31.67
2022-08-16T22:55:46.961Z,31.66
2022-08-16T22:58:13.933Z,31.65
2022-08-16T23:00:40.850Z,31.63
2022-08-16T23:03:18.953Z,31.65
2022-08-16T23:05:55.451Z,31.65
2022-08-16T23:08:32.387Z,31.63
2022-08-16T23:11:06.816Z,31.63
2022-08-16T23:13:33.972Z,31.61
2022-08-16T23:16:11.334Z,31.60
2022-08-16T23:18:39.020Z,31.60
2022-08-16T23:21:08.348Z,31.58
2022-08-16T23:23:35.187Z,31.58
2022-08-16T23:26:02.494Z,31.44
2022-08-16T23:28:49.729Z,31.57
2022-08-16T23:31:16.460Z,31.57
2022-08-16T23:33:42.903Z,31.57
2022-08-16T23:36:09.841Z,31.57
2022-08-16T23:38:39.367Z,31.56
2022-08-16T23:41:11.579Z,31.55
2022-08-16T23:43:42.929Z,31.55
2022-08-16T23:46:13.863Z,31.54
2022-08-16T23:49:59.138Z,31.54
2022-08-16T23:51:28.888Z,31.54
2022-08-16T23:53:55.673Z,31.53
2022-08-16T23:56:22.547Z,31.48
2022-08-16T23:58:54.327Z,31.52
